createdAt,value
2016-05-08T00:00:03.569Z,73.2
2016-05-08T00:00:13.569Z,73.8
2016-05-08T00:00:23.569Z,74.3
2016-05-08T00:00:33.572Z,73.9
2016-05-08T00:00:43.557Z,73.3
2016-05-08T00:00:53.557Z,73.2
2016-05-08T00:01:03.400Z,73
2016-05-08T00:01:13.541Z,73.4
2016-05-08T00:01:23.541Z,73.7
2016-05-08T00:01:33.543Z,74.1
2016-05-08T00:01:43.543Z,73.7
2016-05-08T00:01:53.543Z,74.5
2016-05-08T00:02:03.527Z,74.9
2016-05-08T00:02:13.371Z,75.2
2016-05-08T00:02:23.512Z,75.1
2016-05-08T00:02:33.515Z,75
2016-05-08T00:02:43.515Z,75.4
2016-05-08T00:02:53.499Z,75.1
2016-05-08T00:03:03.343Z,75.1
2016-05-08T00:03:13.499Z,75.4
2016-05-08T00:03:23.499Z,75.4
2016-05-08T00:03:33.487Z,75.3
2016-05-08T00:03:43.487Z,75.4
2016-05-08T00:03:53.471Z,75.9
2016-05-08T00:04:03.487Z,75.9
2016-05-08T00:04:13.471Z,75.8
2016-05-08T00:04:23.455Z,76.5
2016-05-08T00:04:33.458Z,76.4
2016-05-08T00:04:43.302Z,76.5
2016-05-08T00:04:53.458Z,76.5
2016-05-08T00:05:03.458Z,76.5
2016-05-08T00:05:13.443Z,76.5
2016-05-08T00:05:23.427Z,76.3
2016-05-08T00:05:33.273Z,76.5
2016-05-08T00:05:43.429Z,76.2
2016-05-08T00:05:53.413Z,76.6
2016-05-08T00:06:03.429Z,76.8
2016-05-08T00:06:13.445Z,76.7
2016-05-08T00:06:23.413Z,76.5
2016-05-08T00:06:33.416Z,76.5
2016-05-08T00:06:43.416Z,77.2
2016-05-08T00:06:53.401Z,76.7
2016-05-08T00:07:03.245Z,75.4
2016-05-08T00:07:13.229Z,74.3
2016-05-08T00:07:23.385Z,73.2
2016-05-08T00:07:33.388Z,72.3
2016-05-08T00:07:43.388Z,72.2
2016-05-08T00:07:53.373Z,72.6
2016-05-08T00:08:03.373Z,72.7
2016-05-08T00:08:13.357Z,73.3
2016-05-08T00:08:23.373Z,72.9
2016-05-08T00:08:33.203Z,73.6
2016-05-08T00:08:43.359Z,73.7
2016-05-08T00:08:53.359Z,74.3
2016-05-08T00:09:03.343Z,74.5
2016-05-08T00:09:13.343Z,73.8
2016-05-08T00:09:23.171Z,73.2
2016-05-08T00:09:33.331Z,73.3
2016-05-08T00:09:43.331Z,73.8
2016-05-08T00:09:53.315Z,74.1
2016-05-08T00:10:03.315Z,74.1
2016-05-08T00:10:13.315Z,74.7
2016-05-08T00:10:23.299Z,75.2
2016-05-08T00:10:33.302Z,75
2016-05-08T00:10:43.302Z,75
2016-05-08T00:10:53.287Z,75
2016-05-08T00:11:03.287Z,75
2016-05-08T00:11:13.287Z,74.9
2016-05-08T00:11:23.271Z,75.1
2016-05-08T00:11:33.273Z,75.4
2016-05-08T00:11:43.273Z,75.2
2016-05-08T00:11:53.273Z,75.4
2016-05-08T00:12:03.258Z,75.7
2016-05-08T00:12:13.711Z,75.8
2016-05-08T00:12:23.258Z,75.8
2016-05-08T00:12:33.589Z,75.7
2016-05-08T00:12:43.526Z,76.4
2016-05-08T00:12:53.104Z,76.7
2016-05-08T00:13:03.198Z,77
2016-05-08T00:13:13.229Z,77.4
2016-05-08T00:13:23.229Z,77.5
2016-05-08T00:13:33.217Z,77.6
2016-05-08T00:13:43.217Z,77.4
2016-05-08T00:13:53.217Z,77.7
2016-05-08T00:14:03.217Z,77.6
2016-05-08T00:14:13.201Z,76.7
2016-05-08T00:14:23.201Z,76.3
2016-05-08T00:14:33.203Z,75.8
2016-05-08T00:14:43.203Z,75.4
2016-05-08T00:14:53.187Z,75.4
2016-05-08T00:15:03.187Z,75.9
2016-05-08T00:15:13.172Z,75.9
2016-05-08T00:15:23.187Z,76.3
2016-05-08T00:15:33.175Z,76.4
2016-05-08T00:15:43.159Z,76.6
2016-05-08T00:15:53.175Z,76.7
2016-05-08T00:16:03.159Z,76.2
2016-05-08T00:16:13.159Z,76
2016-05-08T00:16:23.159Z,76.5
2016-05-08T00:16:33.147Z,76.5
2016-05-08T00:16:43.147Z,76.5
2016-05-08T00:16:53.147Z,77.2
2016-05-08T00:17:03.131Z,76.3
2016-05-08T00:17:13.115Z,75.6
2016-05-08T00:17:23.115Z,75.4
2016-05-08T00:17:33.118Z,75.3
2016-05-08T00:17:43.118Z,75.8
2016-05-08T00:17:53.118Z,75.9
2016-05-08T00:18:03.103Z,75.7
2016-05-08T00:18:12.946Z,75.1
2016-05-08T00:18:23.087Z,75.9
2016-05-08T00:18:33.089Z,76.4
2016-05-08T00:18:43.089Z,76.4
2016-05-08T00:18:53.089Z,76.6
2016-05-08T00:19:03.073Z,76.5
2016-05-08T00:19:12.933Z,77.2
2016-05-08T00:19:23.073Z,76.8
2016-05-08T00:19:33.076Z,77.5
2016-05-08T00:19:42.905Z,77.3
2016-05-08T00:19:53.061Z,76.6
2016-05-08T00:20:03.045Z,75.5
2016-05-08T00:20:13.045Z,75.9
2016-05-08T00:20:23.061Z,75.4
2016-05-08T00:20:33.047Z,75.9
2016-05-08T00:20:43.032Z,75.1
2016-05-08T00:20:53.032Z,75
2016-05-08T00:21:03.016Z,75.1
2016-05-08T00:21:13.016Z,74.8
2016-05-08T00:21:22.875Z,74.5
2016-05-08T00:21:33.019Z,75.3
2016-05-08T00:21:43.019Z,75.5
2016-05-08T00:21:53.019Z,75.4
2016-05-08T00:22:03.003Z,75.3
2016-05-08T00:22:13.003Z,75.2
2016-05-08T00:22:22.988Z,75.9
2016-05-08T00:22:32.976Z,75.2
2016-05-08T00:22:42.835Z,75.2
2016-05-08T00:22:52.992Z,75.2
2016-05-08T00:23:02.976Z,75
2016-05-08T00:23:12.992Z,75
2016-05-08T00:23:22.976Z,74.9
2016-05-08T00:23:32.978Z,75.5
2016-05-08T00:23:42.962Z,75.3
2016-05-08T00:23:52.962Z,75.6
2016-05-08T00:24:03.603Z,76.2
2016-05-08T00:24:12.954Z,75.8
2016-05-08T00:24:22.938Z,75.7
2016-05-08T00:24:32.941Z,76.2
2016-05-08T00:24:42.941Z,76.5
2016-05-08T00:24:52.925Z,76.9
2016-05-08T00:25:02.925Z,77.2
2016-05-08T00:25:12.769Z,77.7
2016-05-08T00:25:22.910Z,78.4
2016-05-08T00:25:32.912Z,78.5
2016-05-08T00:25:42.896Z,78.4
2016-05-08T00:25:52.896Z,78.7
2016-05-08T00:26:02.927Z,77.1
2016-05-08T00:26:12.896Z,76.4
2016-05-08T00:26:22.881Z,75.1
2016-05-08T00:26:32.884Z,74.8
2016-05-08T00:26:42.884Z,75.4
2016-05-08T00:26:52.868Z,75.5
2016-05-08T00:27:02.712Z,75.2
2016-05-08T00:27:13.337Z,75.4
2016-05-08T00:27:22.852Z,75.7
2016-05-08T00:27:32.886Z,76.5
2016-05-08T00:27:42.854Z,76.7
2016-05-08T00:27:52.854Z,76.6
2016-05-08T00:28:02.839Z,76.9
2016-05-08T00:28:12.839Z,76.6
2016-05-08T00:28:22.839Z,75.6
2016-05-08T00:28:32.843Z,75.1
2016-05-08T00:28:42.827Z,75.3
2016-05-08T00:28:52.827Z,75.4
2016-05-08T00:29:02.671Z,75.5
2016-05-08T00:29:12.811Z,75.8
2016-05-08T00:29:22.811Z,75.6
2016-05-08T00:29:32.798Z,75.4
2016-05-08T00:29:42.798Z,75.3
2016-05-08T00:29:52.813Z,74.9
2016-05-08T00:30:02.798Z,74.3
2016-05-08T00:30:12.782Z,74
2016-05-08T00:30:22.782Z,74.1
2016-05-08T00:30:32.770Z,74
2016-05-08T00:30:42.770Z,74.5
2016-05-08T00:30:52.770Z,74.9
2016-05-08T00:31:02.770Z,74.6
2016-05-08T00:31:12.754Z,74.1
2016-05-08T00:31:22.754Z,74.2
2016-05-08T00:31:32.757Z,75.2
2016-05-08T00:31:42.741Z,75.4
2016-05-08T00:31:52.757Z,75.4
2016-05-08T00:32:02.726Z,75.4
2016-05-08T00:32:12.741Z,75.9
2016-05-08T00:32:22.585Z,76.7
2016-05-08T00:32:32.728Z,77.3
2016-05-08T00:32:42.728Z,77.6
2016-05-08T00:32:52.712Z,78.2
2016-05-08T00:33:02.728Z,77.9
2016-05-08T00:33:12.712Z,77.5
2016-05-08T00:33:22.696Z,78.1
2016-05-08T00:33:32.542Z,78.5
2016-05-08T00:33:42.542Z,78.7
2016-05-08T00:33:52.527Z,79
2016-05-08T00:34:02.698Z,79.2
2016-05-08T00:34:12.683Z,79.1
2016-05-08T00:34:22.683Z,79.5
2016-05-08T00:34:32.686Z,79.3
2016-05-08T00:34:42.670Z,79
2016-05-08T00:34:52.514Z,79.3
2016-05-08T00:35:02.655Z,78.9
2016-05-08T00:35:12.655Z,78.6
2016-05-08T00:35:22.655Z,78.8
2016-05-08T00:35:32.673Z,79
2016-05-08T00:35:42.642Z,79.5
2016-05-08T00:35:52.642Z,78.9
2016-05-08T00:36:02.658Z,78.3
2016-05-08T00:36:12.626Z,77.3
2016-05-08T00:36:22.470Z,76.9
2016-05-08T00:36:32.614Z,76.4
2016-05-08T00:36:42.614Z,76.1
2016-05-08T00:36:52.614Z,75.8
2016-05-08T00:37:02.614Z,75.6
2016-05-08T00:37:12.598Z,75
2016-05-08T00:37:22.598Z,75.4
2016-05-08T00:37:32.601Z,75.1
2016-05-08T00:37:42.601Z,75.5
2016-05-08T00:37:52.570Z,75
2016-05-08T00:38:02.585Z,75.4
2016-05-08T00:38:12.570Z,76
2016-05-08T00:38:22.570Z,75.5
2016-05-08T00:38:32.572Z,75.2
2016-05-08T00:38:42.556Z,74.6
2016-05-08T00:38:52.556Z,74.1
2016-05-08T00:39:02.556Z,74.6
2016-05-08T00:39:12.556Z,75
2016-05-08T00:39:22.541Z,75.2
2016-05-08T00:39:32.544Z,75.6
2016-05-08T00:39:42.544Z,75.7
2016-05-08T00:39:52.528Z,76.3
2016-05-08T00:40:02.528Z,76.3
2016-05-08T00:40:12.528Z,76.5
2016-05-08T00:40:22.512Z,77.1
2016-05-08T00:40:32.356Z,77.4
2016-05-08T00:40:42.499Z,77.9
2016-05-08T00:40:52.514Z,78.3
2016-05-08T00:41:02.499Z,78.2
2016-05-08T00:41:12.483Z,78.3
2016-05-08T00:41:22.499Z,78.6
2016-05-08T00:41:32.483Z,78.5
2016-05-08T00:41:42.486Z,78.2
2016-05-08T00:41:52.470Z,77.5
2016-05-08T00:42:02.470Z,78.2
2016-05-08T00:42:12.674Z,79
2016-05-08T00:42:22.720Z,78.2
2016-05-08T00:42:32.470Z,77.3
2016-05-08T00:42:42.302Z,76.8
2016-05-08T00:42:52.489Z,76.9
2016-05-08T00:43:02.458Z,76.6
2016-05-08T00:43:12.286Z,75.9
2016-05-08T00:43:22.442Z,75.7
2016-05-08T00:43:32.427Z,75.7
2016-05-08T00:43:42.430Z,75.5
2016-05-08T00:43:52.445Z,75.7
2016-05-08T00:44:02.414Z,75.9
2016-05-08T00:44:12.414Z,76.8
2016-05-08T00:44:22.414Z,76.8
2016-05-08T00:44:32.242Z,77.5
2016-05-08T00:44:42.416Z,77.3
2016-05-08T00:44:52.400Z,77.7
2016-05-08T00:45:02.400Z,77.3
2016-05-08T00:45:12.244Z,76.4
2016-05-08T00:45:22.385Z,75.1
2016-05-08T00:45:32.228Z,74.7
2016-05-08T00:45:42.372Z,74.1
2016-05-08T00:45:52.372Z,73.5
2016-05-08T00:46:02.372Z,73.7
2016-05-08T00:46:12.372Z,74.1
2016-05-08T00:46:22.356Z,74.7
2016-05-08T00:46:32.200Z,75.1
2016-05-08T00:46:42.359Z,75.4
2016-05-08T00:46:52.344Z,75.7
2016-05-08T00:47:02.344Z,75.7
2016-05-08T00:47:12.344Z,76.4
2016-05-08T00:47:22.344Z,76.4
2016-05-08T00:47:32.172Z,76.2
2016-05-08T00:47:42.331Z,76.2
2016-05-08T00:47:52.316Z,76.5
2016-05-08T00:48:02.316Z,76.9
2016-05-08T00:48:12.316Z,77.1
2016-05-08T00:48:22.316Z,76.6
2016-05-08T00:48:32.300Z,76.1
2016-05-08T00:48:42.302Z,76.6
2016-05-08T00:48:52.302Z,77.5
2016-05-08T00:49:02.286Z,77.7
2016-05-08T00:49:12.286Z,77.7
2016-05-08T00:49:22.286Z,78.1
2016-05-08T00:49:32.271Z,78.3
2016-05-08T00:49:42.274Z,78.3
2016-05-08T00:49:52.258Z,78.2
2016-05-08T00:50:02.258Z,78.6
2016-05-08T00:50:12.258Z,77.1
2016-05-08T00:50:22.258Z,77.3
2016-05-08T00:50:32.258Z,77.2
2016-05-08T00:50:42.244Z,77.3
2016-05-08T00:50:52.244Z,78
2016-05-08T00:51:02.244Z,77.9
2016-05-08T00:51:12.229Z,77.3
2016-05-08T00:51:22.073Z,76.9
2016-05-08T00:51:32.213Z,76.4
2016-05-08T00:51:42.216Z,76.9
2016-05-08T00:51:52.216Z,77.1
2016-05-08T00:52:02.216Z,77.3
2016-05-08T00:52:12.216Z,77.5
2016-05-08T00:52:22.201Z,76.5
2016-05-08T00:52:32.201Z,75.5
2016-05-08T00:52:42.187Z,74.8
2016-05-08T00:52:52.187Z,74.6
2016-05-08T00:53:02.187Z,74.6
2016-05-08T00:53:12.171Z,74.8
2016-05-08T00:53:22.171Z,74.8
2016-05-08T00:53:32.171Z,75.1
2016-05-08T00:53:42.160Z,75.6
2016-05-08T00:53:52.160Z,75.8
2016-05-08T00:54:02.160Z,76.5
2016-05-08T00:54:12.160Z,77.1
2016-05-08T00:54:22.144Z,77.4
2016-05-08T00:54:32.128Z,77
2016-05-08T00:54:42.146Z,76.7
2016-05-08T00:54:52.130Z,77.2
2016-05-08T00:55:02.130Z,77.3
2016-05-08T00:55:12.130Z,77.7
2016-05-08T00:55:21.959Z,78.1
2016-05-08T00:55:31.959Z,78.9
2016-05-08T00:55:42.118Z,78.8
2016-05-08T00:55:52.102Z,78.7
2016-05-08T00:56:02.102Z,78.9
2016-05-08T00:56:12.102Z,79.1
2016-05-08T00:56:22.102Z,79.3
2016-05-08T00:56:32.087Z,79.2
2016-05-08T00:56:42.089Z,78.9
2016-05-08T00:56:52.073Z,78.5
2016-05-08T00:57:02.073Z,78.7
2016-05-08T00:57:12.073Z,78.2
2016-05-08T00:57:22.089Z,77.6
2016-05-08T00:57:32.057Z,76.9
2016-05-08T00:57:42.060Z,76.9
2016-05-08T00:57:52.357Z,76.9
2016-05-08T00:58:02.826Z,76.7
2016-05-08T00:58:12.045Z,77.3
2016-05-08T00:58:22.045Z,77.4
2016-05-08T00:58:32.045Z,78.5
2016-05-08T00:58:42.031Z,78.4
2016-05-08T00:58:52.031Z,77.6
2016-05-08T00:59:02.031Z,77.4
2016-05-08T00:59:12.015Z,77.2
2016-05-08T00:59:21.859Z,77.4
2016-05-08T00:59:31.844Z,77.6
2016-05-08T00:59:42.004Z,77.7
2016-05-08T00:59:52.004Z,77.9
2016-05-08T01:00:02.004Z,78.1
2016-05-08T01:00:12.004Z,78.1
2016-05-08T01:00:21.988Z,78.2
2016-05-08T01:00:31.988Z,78
2016-05-08T01:00:41.976Z,77.8
2016-05-08T01:00:51.976Z,77.7
2016-05-08T01:01:01.976Z,77.6
2016-05-08T01:01:11.960Z,77.4
2016-05-08T01:01:21.960Z,77.6
2016-05-08T01:01:31.960Z,78
2016-05-08T01:01:41.962Z,77.8
2016-05-08T01:01:51.946Z,78.2
2016-05-08T01:02:01.946Z,78.4
2016-05-08T01:02:11.931Z,78.9
2016-05-08T01:02:21.946Z,78.8
2016-05-08T01:02:31.931Z,78.1
2016-05-08T01:02:41.933Z,78.3
2016-05-08T01:02:51.917Z,78.1
2016-05-08T01:03:01.917Z,78.2
2016-05-08T01:03:11.917Z,78.9
2016-05-08T01:03:21.901Z,79.4
2016-05-08T01:03:31.901Z,79.8
2016-05-08T01:03:41.905Z,80.2
2016-05-08T01:03:51.890Z,79.6
2016-05-08T01:04:01.890Z,79.4
2016-05-08T01:04:11.890Z,78.9
2016-05-08T01:04:21.734Z,79
2016-05-08T01:04:31.874Z,79
2016-05-08T01:04:41.876Z,79.5
2016-05-08T01:04:51.876Z,79.4
2016-05-08T01:05:01.861Z,78.6
2016-05-08T01:05:11.861Z,77.3
2016-05-08T01:05:21.845Z,76.7
2016-05-08T01:05:31.861Z,76.6
2016-05-08T01:05:41.848Z,76.7
2016-05-08T01:05:51.692Z,76.7
2016-05-08T01:06:01.832Z,76.3
2016-05-08T01:06:11.832Z,76.7
2016-05-08T01:06:21.832Z,76.5
2016-05-08T01:06:31.817Z,75.8
2016-05-08T01:06:41.820Z,75.8
2016-05-08T01:06:51.820Z,75.6
2016-05-08T01:07:01.804Z,76.3
2016-05-08T01:07:11.804Z,76.4
2016-05-08T01:07:21.648Z,77.9
2016-05-08T01:07:31.648Z,78.5
2016-05-08T01:07:41.806Z,78.7
2016-05-08T01:07:51.806Z,79.3
2016-05-08T01:08:01.790Z,79.2
2016-05-08T01:08:11.775Z,79
2016-05-08T01:08:21.775Z,79.1
2016-05-08T01:08:31.775Z,79.3
2016-05-08T01:08:41.777Z,79.3
2016-05-08T01:08:51.761Z,80
2016-05-08T01:09:01.605Z,79.6
2016-05-08T01:09:11.605Z,79.9
2016-05-08T01:09:21.746Z,80.2
2016-05-08T01:09:31.746Z,80.4
2016-05-08T01:09:41.733Z,80.3
2016-05-08T01:09:51.733Z,79.4
2016-05-08T01:10:01.717Z,79.3
2016-05-08T01:10:11.717Z,78.9
2016-05-08T01:10:21.717Z,78.9
2016-05-08T01:10:31.717Z,79.4
2016-05-08T01:10:41.720Z,79.5
2016-05-08T01:10:51.705Z,79.3
2016-05-08T01:11:01.705Z,79.6
2016-05-08T01:11:11.705Z,79.7
2016-05-08T01:11:21.705Z,79.7
2016-05-08T01:11:31.689Z,79.8
2016-05-08T01:11:41.692Z,79.6
2016-05-08T01:11:51.676Z,80.2
2016-05-08T01:12:01.676Z,80.2
2016-05-08T01:12:11.692Z,79.8
2016-05-08T01:12:21.676Z,79.5
2016-05-08T01:12:32.020Z,79.5
2016-05-08T01:12:41.664Z,79.6
2016-05-08T01:12:52.039Z,80.1
2016-05-08T01:13:01.648Z,80.2
2016-05-08T01:13:11.633Z,80.3
2016-05-08T01:13:21.633Z,80.2
2016-05-08T01:13:31.633Z,79.7
2016-05-08T01:13:41.635Z,79.3
2016-05-08T01:13:51.619Z,79.7
2016-05-08T01:14:01.635Z,79.4
2016-05-08T01:14:11.619Z,80.1
2016-05-08T01:14:21.463Z,80.5
2016-05-08T01:14:31.463Z,80
2016-05-08T01:14:41.450Z,79.4
2016-05-08T01:14:51.450Z,78.5
2016-05-08T01:15:01.591Z,77.9
2016-05-08T01:15:11.591Z,77.2
2016-05-08T01:15:21.591Z,77.9
2016-05-08T01:15:31.591Z,78.4
2016-05-08T01:15:41.594Z,78.9
2016-05-08T01:15:51.594Z,79
2016-05-08T01:16:01.562Z,79.2
2016-05-08T01:16:11.562Z,79.7
2016-05-08T01:16:21.406Z,79.7
2016-05-08T01:16:31.547Z,79.7
2016-05-08T01:16:41.550Z,79.9
2016-05-08T01:16:51.550Z,79.7
2016-05-08T01:17:01.550Z,80.1
2016-05-08T01:17:11.550Z,80.5
2016-05-08T01:17:21.550Z,80.4
2016-05-08T01:17:31.550Z,80.7
2016-05-08T01:17:41.536Z,81
2016-05-08T01:17:51.536Z,81
2016-05-08T01:18:01.521Z,81.3
2016-05-08T01:18:11.521Z,81.7
2016-05-08T01:18:21.505Z,81.8
2016-05-08T01:18:31.505Z,81.6
2016-05-08T01:18:41.508Z,81.9
2016-05-08T01:18:51.492Z,82.3
2016-05-08T01:19:01.492Z,82.5
2016-05-08T01:19:11.492Z,82.6
2016-05-08T01:19:21.492Z,82.6
2016-05-08T01:19:31.477Z,82.3
2016-05-08T01:19:41.479Z,82.9
2016-05-08T01:19:51.479Z,83.2
2016-05-08T01:20:01.479Z,83
2016-05-08T01:20:11.463Z,83.3
2016-05-08T01:20:21.463Z,83.2
2016-05-08T01:20:31.447Z,83.2
2016-05-08T01:20:41.450Z,83.1
2016-05-08T01:20:51.450Z,83.3
2016-05-08T01:21:01.294Z,83.2
2016-05-08T01:21:11.435Z,83.2
2016-05-08T01:21:21.419Z,83.3
2016-05-08T01:21:31.419Z,83.3
2016-05-08T01:21:41.422Z,83.2
2016-05-08T01:21:51.407Z,83.3
2016-05-08T01:22:01.422Z,83.2
2016-05-08T01:22:11.407Z,83.1
2016-05-08T01:22:21.407Z,82.6
2016-05-08T01:22:31.407Z,81.2
2016-05-08T01:22:41.394Z,81.2
2016-05-08T01:22:51.394Z,80.8
2016-05-08T01:23:01.394Z,81.2
2016-05-08T01:23:11.378Z,81.5
2016-05-08T01:23:21.378Z,81.5
2016-05-08T01:23:31.363Z,81.3
2016-05-08T01:23:41.365Z,81.3
2016-05-08T01:23:51.380Z,81.4
2016-05-08T01:24:01.349Z,81.9
2016-05-08T01:24:11.349Z,81.8
2016-05-08T01:24:21.349Z,81.5
2016-05-08T01:24:31.365Z,80.9
2016-05-08T01:24:41.352Z,79.8
2016-05-08T01:24:51.337Z,79.2
2016-05-08T01:25:01.337Z,79.3
2016-05-08T01:25:11.322Z,79.7
2016-05-08T01:25:21.322Z,80.3
2016-05-08T01:25:31.322Z,80.1
2016-05-08T01:25:41.152Z,80.3
2016-05-08T01:25:51.308Z,80.4
2016-05-08T01:26:01.308Z,81
2016-05-08T01:26:11.293Z,81.3
2016-05-08T01:26:21.293Z,81.1
2016-05-08T01:26:31.293Z,80.9
2016-05-08T01:26:41.280Z,81.3
2016-05-08T01:26:51.280Z,81.3
2016-05-08T01:27:01.280Z,81.2
2016-05-08T01:27:11.280Z,80.4
2016-05-08T01:27:21.124Z,80.3
2016-05-08T01:27:31.342Z,80.5
2016-05-08T01:27:41.344Z,80.6
2016-05-08T01:27:51.110Z,81.1
2016-05-08T01:28:01.282Z,80.1
2016-05-08T01:28:11.251Z,79.4
2016-05-08T01:28:21.235Z,79.3
2016-05-08T01:28:31.235Z,79
2016-05-08T01:28:41.239Z,79.5
2016-05-08T01:28:51.223Z,79.5
2016-05-08T01:29:01.223Z,79.6
2016-05-08T01:29:11.223Z,79.5
2016-05-08T01:29:21.052Z,79.6
2016-05-08T01:29:31.052Z,80.1
2016-05-08T01:29:41.210Z,80.6
2016-05-08T01:29:51.038Z,80.2
2016-05-08T01:30:01.194Z,81.1
2016-05-08T01:30:11.038Z,81.3
2016-05-08T01:30:21.194Z,80.7
2016-05-08T01:30:31.179Z,81.1
2016-05-08T01:30:41.182Z,80.5
2016-05-08T01:30:51.025Z,80.1
2016-05-08T01:31:01.166Z,80.4
2016-05-08T01:31:11.166Z,80.5
2016-05-08T01:31:21.166Z,80.4
2016-05-08T01:31:31.150Z,80.9
2016-05-08T01:31:41.152Z,80.9
2016-05-08T01:31:51.152Z,81.5
2016-05-08T01:32:01.137Z,81.3
2016-05-08T01:32:10.980Z,81.4
2016-05-08T01:32:21.137Z,81.2
2016-05-08T01:32:31.121Z,80.9
2016-05-08T01:32:41.125Z,81.3
2016-05-08T01:32:51.125Z,81.8
2016-05-08T01:33:01.141Z,82
2016-05-08T01:33:11.125Z,82.5
2016-05-08T01:33:21.109Z,82.1
2016-05-08T01:33:31.109Z,82.2
2016-05-08T01:33:41.096Z,82.9
2016-05-08T01:33:51.096Z,82.9
2016-05-08T01:34:01.111Z,82.1
2016-05-08T01:34:11.096Z,82.1
2016-05-08T01:34:21.080Z,81.8
2016-05-08T01:34:31.080Z,81.9
2016-05-08T01:34:41.083Z,82.2
2016-05-08T01:34:51.068Z,82.4
2016-05-08T01:35:01.068Z,83
2016-05-08T01:35:11.052Z,83.1
2016-05-08T01:35:21.052Z,83.2
2016-05-08T01:35:31.052Z,83.2
2016-05-08T01:35:41.054Z,82.3
2016-05-08T01:35:51.038Z,82.1
2016-05-08T01:36:01.038Z,81.4
2016-05-08T01:36:11.038Z,81.2
2016-05-08T01:36:21.023Z,81.2
2016-05-08T01:36:31.023Z,80.9
2016-05-08T01:36:41.026Z,80.6
2016-05-08T01:36:51.010Z,81.4
2016-05-08T01:37:01.010Z,81.5
2016-05-08T01:37:11.010Z,81.4
2016-05-08T01:37:20.994Z,81.5
2016-05-08T01:37:30.994Z,81.3
2016-05-08T01:37:40.996Z,81
2016-05-08T01:37:50.840Z,80.9
2016-05-08T01:38:00.981Z,81.1
2016-05-08T01:38:10.981Z,81.3
2016-05-08T01:38:20.981Z,81.9
2016-05-08T01:38:30.965Z,81.6
2016-05-08T01:38:40.969Z,81.5
2016-05-08T01:38:50.813Z,81.2
2016-05-08T01:39:00.969Z,81.1
2016-05-08T01:39:10.954Z,81.4
2016-05-08T01:39:20.938Z,82.1
2016-05-08T01:39:30.938Z,82.4
2016-05-08T01:39:40.940Z,82.8
2016-05-08T01:39:50.940Z,82.8
2016-05-08T01:40:00.924Z,82.5
2016-05-08T01:40:10.768Z,82.9
2016-05-08T01:40:20.924Z,83.2
2016-05-08T01:40:30.909Z,83.5
2016-05-08T01:40:40.912Z,83.1
2016-05-08T01:40:50.912Z,82.7
2016-05-08T01:41:00.896Z,82.1
2016-05-08T01:41:10.896Z,81.9
2016-05-08T01:41:20.896Z,81.8
2016-05-08T01:41:30.880Z,81.7
2016-05-08T01:41:40.882Z,81.8
2016-05-08T01:41:50.867Z,82.4
2016-05-08T01:42:00.867Z,82.4
2016-05-08T01:42:10.867Z,83
2016-05-08T01:42:20.726Z,83.4
2016-05-08T01:42:31.351Z,83.9
2016-05-08T01:42:41.042Z,83.9
2016-05-08T01:42:51.042Z,83.8
2016-05-08T01:43:00.901Z,83.3
2016-05-08T01:43:10.839Z,82.4
2016-05-08T01:43:20.839Z,82.6
2016-05-08T01:43:30.839Z,82
2016-05-08T01:43:40.826Z,82.3
2016-05-08T01:43:50.826Z,82.5
2016-05-08T01:44:00.826Z,83.1
2016-05-08T01:44:10.826Z,83.5
2016-05-08T01:44:20.654Z,83.9
2016-05-08T01:44:30.810Z,83.7
2016-05-08T01:44:40.798Z,84.4
2016-05-08T01:44:50.798Z,83.9
2016-05-08T01:45:00.813Z,84
2016-05-08T01:45:10.626Z,83.5
2016-05-08T01:45:20.782Z,83.1
2016-05-08T01:45:30.782Z,83.2
2016-05-08T01:45:40.784Z,82.8
2016-05-08T01:45:50.768Z,82.2
2016-05-08T01:46:00.612Z,81.3
2016-05-08T01:46:10.768Z,80.8
2016-05-08T01:46:20.753Z,80.6
2016-05-08T01:46:30.753Z,81.2
2016-05-08T01:46:40.740Z,80.7
2016-05-08T01:46:50.600Z,80.4
2016-05-08T01:47:00.740Z,80.4
2016-05-08T01:47:10.740Z,80.2
2016-05-08T01:47:20.725Z,80.4
2016-05-08T01:47:30.725Z,80.4
2016-05-08T01:47:40.728Z,81.1
2016-05-08T01:47:50.712Z,81
2016-05-08T01:48:00.712Z,80.9
2016-05-08T01:48:10.712Z,81.3
2016-05-08T01:48:20.712Z,81.2
2016-05-08T01:48:30.696Z,81.3
2016-05-08T01:48:40.714Z,81.5
2016-05-08T01:48:50.683Z,82.2
2016-05-08T01:49:00.683Z,82.3
2016-05-08T01:49:10.683Z,81.4
2016-05-08T01:49:20.683Z,81.2
2016-05-08T01:49:30.526Z,81.2
2016-05-08T01:49:40.686Z,81.5
2016-05-08T01:49:50.670Z,81.7
2016-05-08T01:50:00.654Z,81.2
2016-05-08T01:50:10.654Z,81
2016-05-08T01:50:20.639Z,81.3
2016-05-08T01:50:30.639Z,81.8
2016-05-08T01:50:40.642Z,81.8
2016-05-08T01:50:50.642Z,81.4
2016-05-08T01:51:00.642Z,81.5
2016-05-08T01:51:10.626Z,81.5
2016-05-08T01:51:20.626Z,81.6
2016-05-08T01:51:30.611Z,82.3
2016-05-08T01:51:40.628Z,82.6
2016-05-08T01:51:50.613Z,82.2
2016-05-08T01:52:00.597Z,81.6
2016-05-08T01:52:10.441Z,81.8
2016-05-08T01:52:20.597Z,82.3
2016-05-08T01:52:30.597Z,82.5
2016-05-08T01:52:40.600Z,82.9
2016-05-08T01:52:50.584Z,83
2016-05-08T01:53:00.600Z,82.4
2016-05-08T01:53:10.584Z,82.6
2016-05-08T01:53:20.569Z,82.5
2016-05-08T01:53:30.412Z,83
2016-05-08T01:53:40.572Z,83
2016-05-08T01:53:50.400Z,83.2
2016-05-08T01:54:00.556Z,83.4
2016-05-08T01:54:10.556Z,83
2016-05-08T01:54:20.556Z,83.2
2016-05-08T01:54:30.556Z,82.6
2016-05-08T01:54:40.543Z,83.3
2016-05-08T01:54:50.543Z,83.4
2016-05-08T01:55:00.528Z,83.9
2016-05-08T01:55:10.512Z,84
2016-05-08T01:55:20.512Z,84.3
2016-05-08T01:55:30.512Z,84.2
2016-05-08T01:55:40.499Z,84.1
2016-05-08T01:55:50.514Z,84.6
2016-05-08T01:56:00.514Z,84.8
2016-05-08T01:56:10.483Z,84.9
2016-05-08T01:56:20.327Z,84.8
2016-05-08T01:56:30.483Z,85.1
2016-05-08T01:56:40.470Z,84.9
2016-05-08T01:56:50.470Z,85
2016-05-08T01:57:00.470Z,85.5
2016-05-08T01:57:10.455Z,85
2016-05-08T01:57:20.455Z,84.5
2016-05-08T01:57:30.470Z,83.7
2016-05-08T01:57:40.457Z,82.9
2016-05-08T01:57:50.504Z,82.4
2016-05-08T01:58:00.504Z,82.5
2016-05-08T01:58:10.441Z,82.1
2016-05-08T01:58:20.441Z,82.4
2016-05-08T01:58:30.425Z,82.7
2016-05-08T01:58:40.428Z,83.7
2016-05-08T01:58:50.428Z,84
2016-05-08T01:59:00.428Z,83.9
2016-05-08T01:59:10.413Z,84.2
2016-05-08T01:59:20.397Z,83.7
2016-05-08T01:59:30.397Z,83.4
2016-05-08T01:59:40.400Z,82.9
2016-05-08T01:59:50.385Z,83
2016-05-08T02:00:00.385Z,83.1
2016-05-08T02:00:10.385Z,82.8
2016-05-08T02:00:20.385Z,82.8
2016-05-08T02:00:30.369Z,82.8
2016-05-08T02:00:40.372Z,82.4
2016-05-08T02:00:50.372Z,82.7
2016-05-08T02:01:00.356Z,82.6
2016-05-08T02:01:10.356Z,82.8
2016-05-08T02:01:20.356Z,83
2016-05-08T02:01:30.356Z,82.8
2016-05-08T02:01:40.344Z,83
2016-05-08T02:01:50.344Z,83.1
2016-05-08T02:02:00.344Z,82.7
2016-05-08T02:02:10.328Z,82.4
2016-05-08T02:02:20.328Z,82.8
2016-05-08T02:02:30.312Z,83.6
2016-05-08T02:02:40.314Z,84
2016-05-08T02:02:50.314Z,83.5
2016-05-08T02:03:00.299Z,83.2
2016-05-08T02:03:10.330Z,82.9
2016-05-08T02:03:20.299Z,82.5
2016-05-08T02:03:30.299Z,82.9
2016-05-08T02:03:40.285Z,83.1
2016-05-08T02:03:50.285Z,83.5
2016-05-08T02:04:00.301Z,83.7
2016-05-08T02:04:10.270Z,83.4
2016-05-08T02:04:20.270Z,83.6
2016-05-08T02:04:30.270Z,83.6
2016-05-08T02:04:40.273Z,84.2
2016-05-08T02:04:50.257Z,84
2016-05-08T02:05:00.257Z,83
2016-05-08T02:05:10.257Z,82.6
2016-05-08T02:05:20.241Z,81.2
2016-05-08T02:05:30.241Z,80.7
2016-05-08T02:05:40.244Z,81
2016-05-08T02:05:50.229Z,81.1
2016-05-08T02:06:00.229Z,80.9
2016-05-08T02:06:10.229Z,81.2
2016-05-08T02:06:20.213Z,81.4
2016-05-08T02:06:30.213Z,81.1
2016-05-08T02:06:40.216Z,80.8
2016-05-08T02:06:50.200Z,80.1
2016-05-08T02:07:00.200Z,79.4
2016-05-08T02:07:10.216Z,79.8
2016-05-08T02:07:20.200Z,80.6
2016-05-08T02:07:30.185Z,81.1
2016-05-08T02:07:40.188Z,82.4
2016-05-08T02:07:50.172Z,82.4
2016-05-08T02:08:00.172Z,83.2
2016-05-08T02:08:10.172Z,83.5
2016-05-08T02:08:20.157Z,84
2016-05-08T02:08:30.157Z,84.3
2016-05-08T02:08:40.159Z,84
2016-05-08T02:08:50.143Z,84.6
2016-05-08T02:09:00.143Z,84.3
2016-05-08T02:09:10.143Z,85
2016-05-08T02:09:20.143Z,85.1
2016-05-08T02:09:30.127Z,84.9
2016-05-08T02:09:40.129Z,85.1
2016-05-08T02:09:50.129Z,85.5
2016-05-08T02:10:00.114Z,85.6
2016-05-08T02:10:09.957Z,86.5
2016-05-08T02:10:20.114Z,86.3
2016-05-08T02:10:30.098Z,86.1
2016-05-08T02:10:40.118Z,86
2016-05-08T02:10:50.102Z,86.7
2016-05-08T02:11:00.118Z,86.5
2016-05-08T02:11:10.086Z,86.8
2016-05-08T02:11:20.086Z,86.4
2016-05-08T02:11:30.086Z,86.6
2016-05-08T02:11:40.074Z,86.4
2016-05-08T02:11:49.918Z,86.1
2016-05-08T02:12:00.058Z,86.3
2016-05-08T02:12:10.058Z,86.2
2016-05-08T02:12:20.199Z,85.6
2016-05-08T02:12:30.136Z,85.9
2016-05-08T02:12:39.951Z,85.7
2016-05-08T02:12:50.045Z,85.7
2016-05-08T02:13:00.341Z,86
2016-05-08T02:13:10.029Z,86.2
2016-05-08T02:13:20.029Z,86.3
2016-05-08T02:13:30.029Z,86.1
2016-05-08T02:13:40.032Z,86.7